createdAt,value
2018-08-13T00:00:32.260Z,1.87
2018-08-13T00:03:05.633Z,2.10
2018-08-13T00:05:40.638Z,2.00
2018-08-13T00:08:14.974Z,2.07
2018-08-13T00:10:50.011Z,2.37
2018-08-13T00:13:23.784Z,2.33
2018-08-13T00:15:56.994Z,2.17
2018-08-13T00:18:39.231Z,2.30
2018-08-13T00:21:16.769Z,2.40
2018-08-13T00:23:50.831Z,2.40
2018-08-13T00:26:25.870Z,2.10
2018-08-13T00:29:01.679Z,2.23
2018-08-13T00:31:36.122Z,2.40
2018-08-13T00:34:11.173Z,2.47
2018-08-13T00:36:44.962Z,2.57
2018-08-13T00:39:24.821Z,2.03
2018-08-13T00:41:59.319Z,2.00
2018-08-13T00:44:33.451Z,1.90
2018-08-13T00:47:11.916Z,2.63
2018-08-13T00:49:49.682Z,2.23
2018-08-13T00:52:37.705Z,2.37
2018-08-13T00:55:14.862Z,2.10
2018-08-13T00:57:48.438Z,2.03
2018-08-13T01:00:23.337Z,2.37
2018-08-13T01:02:57.809Z,2.27
2018-08-13T01:05:35.831Z,2.17
2018-08-13T01:08:09.232Z,2.00
2018-08-13T01:10:44.875Z,1.93
2018-08-13T01:13:21.547Z,2.07
2018-08-13T01:15:55.397Z,2.10
2018-08-13T01:18:29.345Z,1.90
2018-08-13T01:21:04.774Z,2.53
2018-08-13T01:23:39.784Z,2.40
2018-08-13T01:26:15.058Z,2.60
2018-08-13T01:28:49.701Z,2.37
2018-08-13T01:31:23.239Z,2.90
2018-08-13T01:33:57.073Z,2.73
2018-08-13T01:36:30.965Z,3.17
2018-08-13T01:39:04.557Z,2.90
2018-08-13T01:41:38.186Z,2.90
2018-08-13T01:44:12.256Z,2.93
2018-08-13T01:46:46.209Z,2.63
2018-08-13T01:49:19.650Z,2.87
2018-08-13T01:51:54.475Z,2.57
2018-08-13T01:54:28.454Z,2.90
2018-08-13T01:57:06.814Z,2.90
2018-08-13T01:59:40.222Z,2.60
2018-08-13T02:02:14.817Z,2.90
2018-08-13T02:04:49.368Z,2.60
2018-08-13T02:07:23.665Z,2.70
2018-08-13T02:09:57.896Z,2.53
2018-08-13T02:12:32.169Z,3.10
2018-08-13T02:15:06.618Z,3.20
2018-08-13T02:17:42.790Z,2.90
2018-08-13T02:20:18.108Z,2.90
2018-08-13T02:22:52.024Z,3.10
2018-08-13T02:25:27.571Z,3.00
2018-08-13T02:28:01.061Z,2.50
2018-08-13T02:30:34.317Z,2.83
2018-08-13T02:33:07.695Z,2.53
2018-08-13T02:35:43.571Z,2.97
2018-08-13T02:38:18.684Z,2.60
2018-08-13T02:40:52.856Z,2.47
2018-08-13T02:43:26.247Z,2.60
2018-08-13T02:46:00.434Z,2.30
2018-08-13T02:48:34.860Z,2.63
2018-08-13T02:51:09.080Z,2.67
2018-08-13T02:53:43.640Z,2.37
2018-08-13T02:56:18.464Z,2.50
2018-08-13T02:58:51.877Z,2.63
2018-08-13T03:01:25.539Z,2.60
2018-08-13T03:03:59.536Z,2.87
2018-08-13T03:06:33.762Z,2.30
2018-08-13T03:09:11.526Z,2.40
2018-08-13T03:11:45.726Z,2.53
2018-08-13T03:14:19.080Z,2.83
2018-08-13T03:16:54.173Z,2.70
2018-08-13T03:19:27.439Z,2.87
2018-08-13T03:22:00.917Z,2.67
2018-08-13T03:24:34.463Z,2.83
2018-08-13T03:27:09.889Z,2.97
2018-08-13T03:29:45.177Z,2.73
2018-08-13T03:32:19.408Z,3.10
2018-08-13T03:34:54.806Z,2.63
2018-08-13T03:37:29.591Z,2.70
2018-08-13T03:40:03.017Z,2.87
2018-08-13T03:42:40.920Z,2.47
2018-08-13T03:45:16.109Z,2.90
2018-08-13T03:47:52.415Z,3.10
2018-08-13T03:50:28.960Z,3.37
2018-08-13T03:53:02.379Z,3.20
2018-08-13T03:55:38.034Z,3.50
2018-08-13T03:58:12.991Z,3.13
2018-08-13T04:00:47.884Z,3.37
2018-08-13T04:03:21.248Z,2.90
2018-08-13T04:05:54.664Z,2.97
2018-08-13T04:08:30.244Z,3.17
2018-08-13T04:11:04.989Z,3.20
2018-08-13T04:13:39.118Z,3.00
2018-08-13T04:16:16.765Z,3.27
2018-08-13T04:18:50.019Z,3.10
2018-08-13T04:21:23.351Z,3.73
2018-08-13T04:23:56.865Z,4.30
2018-08-13T04:26:31.060Z,4.20
2018-08-13T04:29:04.596Z,3.60
2018-08-13T04:31:41.622Z,2.87
2018-08-13T04:34:16.079Z,3.03
2018-08-13T04:36:50.365Z,3.00
2018-08-13T04:39:27.391Z,2.77
2018-08-13T04:42:03.487Z,2.53
2018-08-13T04:44:43.088Z,2.87
2018-08-13T04:47:16.701Z,2.67
2018-08-13T04:49:51.459Z,2.80
2018-08-13T04:52:24.487Z,3.10
2018-08-13T04:55:03.830Z,2.60
2018-08-13T04:57:40.487Z,3.20
2018-08-13T05:00:23.872Z,2.37
2018-08-13T05:02:59.449Z,2.40
2018-08-13T05:05:42.032Z,2.50
2018-08-13T05:08:21.997Z,2.27
2018-08-13T05:10:59.905Z,2.50
2018-08-13T05:16:20.832Z,2.50
2018-08-13T05:18:56.184Z,2.60
2018-08-13T05:21:36.789Z,2.30
2018-08-13T05:24:10.917Z,2.47
2018-08-13T05:26:51.414Z,2.40
2018-08-13T05:29:25.902Z,2.03
2018-08-13T05:31:59.414Z,2.00
2018-08-13T05:34:33.275Z,2.33
2018-08-13T05:37:07.058Z,2.23
2018-08-13T05:39:41.209Z,2.27
2018-08-13T05:42:14.990Z,2.43
2018-08-13T05:44:48.467Z,2.20
2018-08-13T05:47:23.269Z,2.40
2018-08-13T05:49:59.326Z,2.73
2018-08-13T05:52:35.224Z,2.10
2018-08-13T05:55:10.631Z,1.83
2018-08-13T05:57:44.393Z,2.00
2018-08-13T06:00:19.566Z,2.00
2018-08-13T06:03:01.383Z,1.97
2018-08-13T06:05:36.022Z,2.00
2018-08-13T06:08:26.450Z,2.37
2018-08-13T06:11:04.003Z,2.13
2018-08-13T06:13:37.648Z,2.20
2018-08-13T06:16:11.028Z,1.90
2018-08-13T06:18:46.078Z,2.37
2018-08-13T06:21:19.283Z,2.00
2018-08-13T06:23:53.109Z,2.07
2018-08-13T06:26:33.761Z,2.27
2018-08-13T06:29:19.074Z,2.30
2018-08-13T06:31:58.858Z,2.10
2018-08-13T06:34:36.007Z,2.07
2018-08-13T06:37:11.246Z,2.70
2018-08-13T06:39:46.380Z,2.30
2018-08-13T06:42:24.367Z,2.07
2018-08-13T06:45:06.415Z,1.93
2018-08-13T06:47:41.291Z,2.77
2018-08-13T06:50:20.702Z,1.97
2018-08-13T06:52:59.060Z,2.33
2018-08-13T06:55:32.632Z,2.60
2018-08-13T06:58:07.838Z,2.80
2018-08-13T07:00:46.451Z,2.27
2018-08-13T07:03:25.430Z,2.37
2018-08-13T07:06:09.436Z,2.40
2018-08-13T07:08:50.510Z,2.50
2018-08-13T07:11:27.718Z,2.90
2018-08-13T07:14:01.850Z,2.53
2018-08-13T07:16:34.994Z,2.40
2018-08-13T07:19:08.693Z,2.90
2018-08-13T07:21:43.802Z,2.20
2018-08-13T07:24:20.136Z,2.80
2018-08-13T07:26:54.129Z,2.60
2018-08-13T07:29:29.261Z,2.10
2018-08-13T07:32:02.649Z,2.30
2018-08-13T07:34:36.711Z,2.37
2018-08-13T07:37:09.978Z,2.63
2018-08-13T07:39:44.050Z,2.20
2018-08-13T07:42:17.708Z,2.40
2018-08-13T07:44:52.217Z,2.63
2018-08-13T14:35:50.361Z,4.33
2018-08-13T14:38:24.763Z,4.37
2018-08-13T14:41:01.377Z,4.43
2018-08-13T14:43:35.294Z,4.67
2018-08-13T14:46:09.811Z,4.47
2018-08-13T14:48:43.305Z,4.40
2018-08-13T14:51:17.780Z,4.17
2018-08-13T14:53:53.244Z,4.23
2018-08-13T14:56:27.220Z,3.97
2018-08-13T14:59:02.443Z,4.30
2018-08-13T15:01:36.635Z,4.20
2018-08-13T15:04:11.299Z,4.57
2018-08-13T15:06:45.649Z,6.10
2018-08-13T15:09:19.651Z,5.03
2018-08-13T15:11:52.969Z,5.00
2018-08-13T15:14:27.216Z,4.37
2018-08-13T15:17:02.921Z,5.20
2018-08-13T15:19:36.275Z,5.63
2018-08-13T15:22:10.394Z,5.00
2018-08-13T15:24:43.700Z,6.10
2018-08-13T15:27:17.011Z,5.93
2018-08-13T15:29:50.476Z,6.17
2018-08-13T15:32:28.439Z,6.47
2018-08-13T15:35:02.867Z,6.07
2018-08-13T15:37:38.708Z,5.43
2018-08-13T15:40:14.879Z,5.47
2018-08-13T15:42:48.246Z,6.00
2018-08-13T15:45:25.330Z,5.97
2018-08-13T15:47:58.300Z,5.27
2018-08-13T15:50:32.611Z,5.57
2018-08-13T15:53:06.483Z,6.60
2018-08-13T15:55:40.607Z,5.50
2018-08-13T15:58:14.008Z,6.13
2018-08-13T16:00:47.822Z,6.57
2018-08-13T16:03:21.340Z,6.37
2018-08-13T16:05:54.574Z,6.73
2018-08-13T16:08:28.063Z,6.20
2018-08-13T16:11:01.702Z,6.67
2018-08-13T16:13:35.050Z,5.80
2018-08-13T16:16:08.756Z,6.97
2018-08-13T16:18:42.742Z,6.60
2018-08-13T16:21:17.395Z,7.40
2018-08-13T16:23:55.523Z,6.50
2018-08-13T16:26:28.908Z,6.97
2018-08-13T16:29:02.274Z,6.80
2018-08-13T16:31:35.538Z,7.87
2018-08-13T16:34:09.379Z,7.40
2018-08-13T16:36:43.538Z,7.93
2018-08-13T16:39:16.876Z,7.70
2018-08-13T16:41:51.027Z,8.97
2018-08-13T16:44:24.944Z,7.37
2018-08-13T16:46:59.758Z,8.60
2018-08-13T16:49:34.468Z,7.13
2018-08-13T16:52:07.774Z,8.77
2018-08-13T16:54:43.234Z,9.57
2018-08-13T16:57:18.130Z,9.70
2018-08-13T16:59:51.366Z,10.60
2018-08-13T17:02:33.237Z,11.23
2018-08-13T17:05:11.239Z,10.13
2018-08-13T17:07:46.573Z,10.37
2018-08-13T17:10:30.358Z,10.00
2018-08-13T17:13:03.758Z,10.27
2018-08-13T17:15:37.070Z,8.77
2018-08-13T17:18:11.095Z,9.60
2018-08-13T17:20:46.939Z,9.43
2018-08-13T17:23:20.446Z,10.37
2018-08-13T17:25:53.687Z,9.27
2018-08-13T17:28:27.378Z,9.27
2018-08-13T17:31:01.335Z,9.90
2018-08-13T17:33:34.795Z,9.80
2018-08-13T17:36:08.744Z,10.13
2018-08-13T17:38:42.184Z,10.97
2018-08-13T17:41:20.251Z,12.33
2018-08-13T17:43:54.753Z,13.03
2018-08-13T17:46:28.573Z,12.77
2018-08-13T17:49:02.360Z,11.83
2018-08-13T17:51:37.226Z,12.73
2018-08-13T17:54:11.881Z,12.57
2018-08-13T17:56:46.719Z,12.67
2018-08-13T17:59:21.577Z,12.03
2018-08-13T18:01:54.972Z,12.93
2018-08-13T18:04:33.465Z,13.43
2018-08-13T18:07:08.021Z,14.23
2018-08-13T18:09:48.112Z,14.63
2018-08-13T18:12:21.716Z,14.00
2018-08-13T18:14:56.524Z,15.87
2018-08-13T18:17:29.839Z,18.17
2018-08-13T18:20:03.174Z,17.27
2018-08-13T18:22:36.502Z,15.53
2018-08-13T18:25:11.507Z,15.90
2018-08-13T18:27:48.306Z,15.40
2018-08-13T18:30:27.367Z,15.83
2018-08-13T18:33:00.852Z,16.77
2018-08-13T18:35:34.205Z,17.20
2018-08-13T18:38:08.719Z,18.77
2018-08-13T18:40:43.833Z,19.60
2018-08-13T18:43:22.211Z,17.87
2018-08-13T18:45:55.648Z,19.70
2018-08-13T18:48:31.352Z,20.87
2018-08-13T18:51:09.664Z,19.33
2018-08-13T18:53:44.059Z,19.93
2018-08-13T18:56:17.438Z,21.43
2018-08-13T18:58:51.671Z,21.43
2018-08-13T19:01:39.329Z,20.50
2018-08-13T19:04:12.687Z,20.97
2018-08-13T19:06:46.580Z,21.57
2018-08-13T19:09:23.694Z,21.43
2018-08-13T19:11:57.749Z,21.00
2018-08-13T19:14:31.320Z,23.03
2018-08-13T19:17:05.051Z,21.70
2018-08-13T19:19:41.882Z,22.90
2018-08-13T19:22:19.057Z,22.00
2018-08-13T19:24:52.562Z,23.67
2018-08-13T19:27:25.972Z,24.87
2018-08-13T19:30:01.275Z,23.60
2018-08-13T19:32:34.621Z,23.60
2018-08-13T19:35:12.698Z,21.53
2018-08-13T19:37:47.244Z,22.73
2018-08-13T19:40:23.710Z,23.60
2018-08-13T19:42:58.638Z,23.07
2018-08-13T19:45:35.014Z,25.43
2018-08-13T19:48:08.862Z,24.57
2018-08-13T19:50:42.848Z,25.70
2018-08-13T19:53:18.757Z,26.10
2018-08-13T19:55:53.682Z,25.60
2018-08-13T19:58:28.158Z,25.33
2018-08-13T20:01:01.679Z,28.03
2018-08-13T20:03:35.051Z,28.47
2018-08-13T20:06:08.626Z,26.17
2018-08-13T20:08:46.128Z,27.10
2018-08-13T20:11:19.626Z,28.67
2018-08-13T20:13:58.469Z,27.60
2018-08-13T20:16:34.011Z,29.07
2018-08-13T20:19:07.305Z,30.93
2018-08-13T20:21:41.894Z,30.30
2018-08-13T20:24:15.351Z,32.20
2018-08-13T20:26:49.385Z,31.63
2018-08-13T20:29:25.125Z,32.50
2018-08-13T20:32:04.381Z,32.17
2018-08-13T20:34:42.644Z,31.87
2018-08-13T20:37:16.247Z,33.03
2018-08-13T20:39:50.738Z,33.27
2018-08-13T20:42:24.672Z,34.40
2018-08-13T20:45:12.696Z,35.87
2018-08-13T20:47:47.136Z,39.13
2018-08-13T20:50:23.276Z,41.93
2018-08-13T20:52:57.155Z,38.93
2018-08-13T20:55:32.412Z,40.90
2018-08-13T20:58:05.695Z,41.37
2018-08-13T21:00:41.725Z,42.10
2018-08-13T21:03:18.256Z,43.80
2018-08-13T21:05:52.205Z,45.00
2018-08-13T21:08:29.350Z,44.40
2018-08-13T21:11:04.603Z,43.50
2018-08-13T21:13:37.996Z,44.47
2018-08-13T21:16:18.191Z,45.13
2018-08-13T21:18:58.936Z,46.77
2018-08-13T21:21:32.544Z,45.23
2018-08-13T21:24:10.076Z,44.07
2018-08-13T21:26:43.448Z,43.30
2018-08-13T21:29:16.887Z,41.33
2018-08-13T21:31:52.990Z,44.27
2018-08-13T21:34:27.242Z,41.93
2018-08-13T21:37:01.634Z,38.77
2018-08-13T21:39:34.944Z,34.53
2018-08-13T21:42:09.635Z,35.47
2018-08-13T21:44:42.987Z,36.33
2018-08-13T21:47:17.843Z,34.03
2018-08-13T21:49:51.625Z,36.30
2018-08-13T21:52:26.130Z,36.30
2018-08-13T21:55:03.411Z,36.93
2018-08-13T21:57:40.862Z,37.77
2018-08-13T22:00:22.836Z,42.37
2018-08-13T22:02:57.227Z,43.43
2018-08-13T22:05:30.761Z,44.00
2018-08-13T22:08:04.475Z,45.60
2018-08-13T22:10:38.485Z,45.67
2018-08-13T22:13:11.829Z,48.90
2018-08-13T22:15:47.148Z,50.63
2018-08-13T22:18:20.661Z,50.27
2018-08-13T22:20:54.736Z,51.70
2018-08-13T22:23:28.795Z,54.13
2018-08-13T22:26:02.680Z,54.47
2018-08-13T22:28:35.987Z,52.67
2018-08-13T22:31:09.663Z,52.97
2018-08-13T22:33:42.886Z,52.50
2018-08-13T22:36:17.260Z,51.73
2018-08-13T22:38:50.640Z,58.17
2018-08-13T22:41:25.811Z,56.77
2018-08-13T22:44:00.747Z,54.17
2018-08-13T22:46:34.694Z,55.77
2018-08-13T22:49:09.969Z,54.67
2018-08-13T22:51:43.332Z,52.70
2018-08-13T22:54:17.583Z,52.03
2018-08-13T22:56:54.351Z,55.57
2018-08-13T22:59:27.800Z,56.13
2018-08-13T23:02:01.011Z,56.27
2018-08-13T23:04:34.525Z,54.87
2018-08-13T23:07:11.012Z,54.37
2018-08-13T23:09:44.966Z,56.17
2018-08-13T23:12:27.684Z,59.47
2018-08-13T23:15:02.878Z,59.57
2018-08-13T23:17:36.179Z,55.77
2018-08-13T23:20:12.060Z,59.13
2018-08-13T23:22:53.960Z,59.47
2018-08-13T23:25:27.634Z,56.43
2018-08-13T23:28:03.342Z,57.60
2018-08-13T23:30:37.224Z,58.10
2018-08-13T23:33:12.799Z,59.10
2018-08-13T23:35:48.009Z,60.30
2018-08-13T23:38:28.112Z,60.93
2018-08-13T23:41:04.480Z,62.30
2018-08-13T23:43:38.111Z,63.63
2018-08-13T23:46:12.008Z,59.83
2018-08-13T23:48:47.127Z,63.87
2018-08-13T23:51:22.854Z,64.00
2018-08-13T23:53:56.993Z,64.07
2018-08-13T23:56:31.460Z,65.33
2018-08-13T23:59:05.596Z,64.90
